• Join FlightAware (Why Join?)
  • Login
  • US Flag 
04:09PM EST


 

Airport Tracker/Info


-or-


 

Live Flight TrackerFlight Track Log ✈ SKW4511 ✈ 19-Feb-2014 ✈ KLAX - KSAN

Flight Track Log - Related Links

Times and Time Zones

All times are in EST time to prevent confusion due to time zone crossing. See the SKW4511 flight status page for this flight to view local times or setup timezone preferences in your user account.

Time Position Orientation Groundspeed Altitude Reporting Facility
EST Latitude Longitude Course Direction KTS MPH feet Rate Location/Type
02:21PM 33.9333 -118.4667 212° Southwest 225 259 2,800  Level Southern California TRACON
02:22PM 33.8667 -118.5167 212° Southwest 275 316 5,500 2,640 Climbing Southern California TRACON
02:23PM 33.8067 -118.5181 181° South 291 335 7,300 2,580 Climbing Los Angeles Center
02:24PM 33.7208 -118.5019 171° South 316 364 10,000 1,740 Climbing Los Angeles Center
02:25PM 33.6547 -118.4217 135° Southeast 351 404 11,000 480 Climbing Los Angeles Center
02:26PM 33.5864 -118.3125 127° Southeast 402 463 11,000  Level Los Angeles Center
02:27PM 33.5192 -118.1753 120° Southeast 405 466 11,000  Level Los Angeles Center
02:28PM 33.4642 -118.0586 119° Southeast 404 465 11,000  Level Los Angeles Center
02:29PM 33.4050 -117.9425 121° Southeast 407 468 11,000  Level Los Angeles Center
02:30PM 33.3450 -117.8264 122° Southeast 410 472 11,000  Level Los Angeles Center
02:31PM 33.2844 -117.7100 122° Southeast 412 474 11,000  Level Los Angeles Center
02:32PM 33.2000 -117.5667 125° Southeast 408 470 11,000  Level Southern California TRACON
02:33PM 33.1500 -117.4500 117° Southeast 411 473 11,000  Level Southern California TRACON
02:34PM 33.0500 -117.3833 151° Southeast 408 470 11,000 -300 Level Southern California TRACON
02:35PM 32.9592 -117.3256 152° Southeast 406 467 10,500 -840 Descending Los Angeles Center
02:36PM 32.8833 -117.2833 155° Southeast 327 376 9,400 -1,680 Descending Southern California TRACON
02:37PM 32.8167 -117.2167 140° Southeast 310 357 7,300 -2,160 Descending Southern California TRACON
02:38PM 32.7667 -117.1333 125° Southeast 300 345 5,100 -1,200 Descending Southern California TRACON
02:39PM 32.7500 -117.0500 103° East 240 276 5,000 -60 Descending Southern California TRACON
02:40PM 32.7500 -116.9833 90° East 212 244 5,000  Level Southern California TRACON
02:41PM 32.7167 -116.9333 128° Southeast 222 255 5,000 -480 Level Southern California TRACON
02:42PM 32.6833 -116.9667 220° Southwest 192 221 4,100 -1,020 Descending Southern California TRACON
02:43PM 32.7000 -117.0333 287° West 190 219 3,000 -1,080 Descending Southern California TRACON
02:44PM 32.7167 -117.0833 292° West 178 205 2,000 -900 Descending Southern California TRACON
02:45PM 32.7167 -117.1333 270° West 143 165 1,300 -840 Descending Southern California TRACON
02:46PM 32.7333 -117.1833 292° West 141 162 400 -900 Descending Southern California TRACON